sensor_id;sensor_type;location;lat;lon;timestamp;pressure;altitude;pressure_sealevel;temperature;humidity
37206;BME280;23099;42.636;23.198;2023-01-28T00:00:15;91268.22;;;-1.27;99.44
37206;BME280;23099;42.636;23.198;2023-01-28T00:02:46;91269.31;;;-1.28;99.83
37206;BME280;23099;42.636;23.198;2023-01-28T00:05:14;91266.84;;;-1.33;100.00
37206;BME280;23099;42.636;23.198;2023-01-28T00:07:40;91269.94;;;-1.22;99.85
37206;BME280;23099;42.636;23.198;2023-01-28T00:10:08;91269.03;;;-1.09;99.99
37206;BME280;23099;42.636;23.198;2023-01-28T00:12:34;91268.09;;;-1.13;99.95
37206;BME280;23099;42.636;23.198;2023-01-28T00:15:01;91271.81;;;-1.14;99.90
37206;BME280;23099;42.636;23.198;2023-01-28T00:17:28;91285.25;;;-1.07;100.00
37206;BME280;23099;42.636;23.198;2023-01-28T00:19:56;91290.50;;;-1.16;99.69
37206;BME280;23099;42.636;23.198;2023-01-28T00:22:23;91292.63;;;-1.18;99.22
37206;BME280;23099;42.636;23.198;2023-01-28T00:24:49;91292.13;;;-1.28;100.00
37206;BME280;23099;42.636;23.198;2023-01-28T00:27:16;91291.34;;;-1.29;100.00
37206;BME280;23099;42.636;23.198;2023-01-28T00:29:43;91289.84;;;-1.13;100.00
37206;BME280;23099;42.636;23.198;2023-01-28T00:32:09;91290.63;;;-1.21;100.00
37206;BME280;23099;42.636;23.198;2023-01-28T00:34:36;91295.09;;;-1.13;99.54
37206;BME280;23099;42.636;23.198;2023-01-28T00:37:04;91299.00;;;-1.01;99.64
37206;BME280;23099;42.636;23.198;2023-01-28T00:39:31;91297.13;;;-1.01;99.49
37206;BME280;23099;42.636;23.198;2023-01-28T00:41:57;91301.91;;;-1.03;98.77
37206;BME280;23099;42.636;23.198;2023-01-28T00:44:24;91300.84;;;-1.02;99.24
37206;BME280;23099;42.636;23.198;2023-01-28T00:46:51;91295.25;;;-1.09;98.86
37206;BME280;23099;42.636;23.198;2023-01-28T00:49:18;91302.06;;;-1.08;99.41
37206;BME280;23099;42.636;23.198;2023-01-28T00:51:44;91304.06;;;-1.05;99.08
37206;BME280;23099;42.636;23.198;2023-01-28T00:54:14;91297.88;;;-1.00;99.09
37206;BME280;23099;42.636;23.198;2023-01-28T00:56:41;91305.28;;;-1.11;99.99
37206;BME280;23099;42.636;23.198;2023-01-28T00:59:07;91299.00;;;-1.01;99.70
37206;BME280;23099;42.636;23.198;2023-01-28T01:01:34;91309.16;;;-1.00;99.64
37206;BME280;23099;42.636;23.198;2023-01-28T01:04:01;91312.75;;;-0.87;99.06
37206;BME280;23099;42.636;23.198;2023-01-28T01:06:29;91306.69;;;-0.96;98.62
37206;BME280;23099;42.636;23.198;2023-01-28T01:08:56;91313.78;;;-0.97;98.39
37206;BME280;23099;42.636;23.198;2023-01-28T01:11:24;91307.94;;;-0.94;98.60
37206;BME280;23099;42.636;23.198;2023-01-28T01:13:52;91314.72;;;-0.93;98.51
37206;BME280;23099;42.636;23.198;2023-01-28T01:16:22;91305.44;;;-0.99;98.50
37206;BME280;23099;42.636;23.198;2023-01-28T01:18:50;91312.75;;;-0.87;98.56
37206;BME280;23099;42.636;23.198;2023-01-28T01:21:19;91310.44;;;-0.89;98.55
37206;BME280;23099;42.636;23.198;2023-01-28T01:23:46;91315.19;;;-0.82;98.56
37206;BME280;23099;42.636;23.198;2023-01-28T01:26:13;91307.31;;;-0.99;98.34
37206;BME280;23099;42.636;23.198;2023-01-28T01:28:42;91322.31;;;-0.91;98.39
37206;BME280;23099;42.636;23.198;2023-01-28T01:31:11;91315.03;;;-0.86;98.52
37206;BME280;23099;42.636;23.198;2023-01-28T01:33:39;91320.44;;;-0.91;98.77
37206;BME280;23099;42.636;23.198;2023-01-28T01:36:07;91314.44;;;-0.91;98.27
37206;BME280;23099;42.636;23.198;2023-01-28T01:38:34;91300.97;;;-0.98;97.96
37206;BME280;23099;42.636;23.198;2023-01-28T01:41:01;91322.31;;;-0.91;98.77
37206;BME280;23099;42.636;23.198;2023-01-28T01:43:48;91313.53;;;-0.87;98.42
37206;BME280;23099;42.636;23.198;2023-01-28T01:46:18;91317.34;;;-0.84;98.58
37206;BME280;23099;42.636;23.198;2023-01-28T01:48:46;91315.97;;;-0.82;98.59
37206;BME280;23099;42.636;23.198;2023-01-28T01:51:16;91323.38;;;-0.92;98.87
37206;BME280;23099;42.636;23.198;2023-01-28T01:53:48;91316.13;;;-0.87;98.81
37206;BME280;23099;42.636;23.198;2023-01-28T01:56:19;91322.59;;;-0.84;98.51
37206;BME280;23099;42.636;23.198;2023-01-28T01:58:49;91324.00;;;-0.87;98.45
37206;BME280;23099;42.636;23.198;2023-01-28T02:01:20;91316.28;;;-0.92;98.84
37206;BME280;23099;42.636;23.198;2023-01-28T02:03:54;91326.47;;;-0.82;98.60
37206;BME280;23099;42.636;23.198;2023-01-28T02:06:25;91330.34;;;-0.79;98.39
37206;BME280;23099;42.636;23.198;2023-01-28T02:08:53;91324.00;;;-0.87;97.88
37206;BME280;23099;42.636;23.198;2023-01-28T02:11:22;91334.78;;;-0.97;97.68
37206;BME280;23099;42.636;23.198;2023-01-28T02:13:53;91323.25;;;-0.87;98.00
37206;BME280;23099;42.636;23.198;2023-01-28T02:16:23;91326.28;;;-0.94;97.97
37206;BME280;23099;42.636;23.198;2023-01-28T02:18:51;91332.19;;;-0.88;98.28
37206;BME280;23099;42.636;23.198;2023-01-28T02:21:44;91330.16;;;-0.91;98.84
37206;BME280;23099;42.636;23.198;2023-01-28T02:24:28;91319.63;;;-1.00;99.12
37206;BME280;23099;42.636;23.198;2023-01-28T02:27:17;91334.00;;;-0.97;99.45
37206;BME280;23099;42.636;23.198;2023-01-28T02:29:52;91317.13;;;-1.22;98.84
37206;BME280;23099;42.636;23.198;2023-01-28T02:32:24;91337.34;;;-1.14;99.20
37206;BME280;23099;42.636;23.198;2023-01-28T02:35:00;91331.16;;;-1.27;99.65
37206;BME280;23099;42.636;23.198;2023-01-28T02:37:33;91324.88;;;-1.17;99.73
37206;BME280;23099;42.636;23.198;2023-01-28T02:40:07;91333.34;;;-1.20;99.45
37206;BME280;23099;42.636;23.198;2023-01-28T02:42:36;91325.00;;;-1.22;99.09
37206;BME280;23099;42.636;23.198;2023-01-28T02:45:14;91329.59;;;-1.28;99.58
37206;BME280;23099;42.636;23.198;2023-01-28T02:47:43;91339.16;;;-1.32;99.48
37206;BME280;23099;42.636;23.198;2023-01-28T02:50:29;91337.28;;;-1.40;99.48
37206;BME280;23099;42.636;23.198;2023-01-28T02:53:10;91332.19;;;-1.45;99.80
37206;BME280;23099;42.636;23.198;2023-01-28T02:56:01;91331.84;;;-1.44;100.00
37206;BME280;23099;42.636;23.198;2023-01-28T02:58:34;91328.03;;;-1.77;100.00
37206;BME280;23099;42.636;23.198;2023-01-28T03:01:09;91327.13;;;-1.72;100.00
37206;BME280;23099;42.636;23.198;2023-01-28T03:03:45;91339.22;;;-1.54;100.00
37206;BME280;23099;42.636;23.198;2023-01-28T03:06:17;91335.25;;;-1.43;100.00
37206;BME280;23099;42.636;23.198;2023-01-28T03:08:49;91333.59;;;-1.39;100.00
37206;BME280;23099;42.636;23.198;2023-01-28T03:11:39;91337.56;;;-1.50;99.84
37206;BME280;23099;42.636;23.198;2023-01-28T03:14:24;91341.28;;;-1.43;100.00
37206;BME280;23099;42.636;23.198;2023-01-28T03:17:15;91344.66;;;-1.42;99.19
37206;BME280;23099;42.636;23.198;2023-01-28T03:20:02;91344.44;;;-1.63;99.30
37206;BME280;23099;42.636;23.198;2023-01-28T03:22:50;91341.34;;;-1.65;100.00
37206;BME280;23099;42.636;23.198;2023-01-28T03:25:37;91346.78;;;-1.53;100.00
37206;BME280;23099;42.636;23.198;2023-01-28T03:28:23;91348.13;;;-1.64;99.99
37206;BME280;23099;42.636;23.198;2023-01-28T03:31:11;91351.25;;;-1.53;99.87
37206;BME280;23099;42.636;23.198;2023-01-28T03:33:58;91350.84;;;-1.47;99.73
37206;BME280;23099;42.636;23.198;2023-01-28T03:36:44;91348.47;;;-1.57;99.97
37206;BME280;23099;42.636;23.198;2023-01-28T03:39:16;91356.00;;;-1.64;100.00
37206;BME280;23099;42.636;23.198;2023-01-28T03:41:55;91352.94;;;-1.88;100.00
37206;BME280;23099;42.636;23.198;2023-01-28T03:44:23;91348.78;;;-1.89;100.00
37206;BME280;23099;42.636;23.198;2023-01-28T03:47:07;91349.50;;;-1.66;100.00
37206;BME280;23099;42.636;23.198;2023-01-28T03:49:38;91354.91;;;-1.63;99.35
37206;BME280;23099;42.636;23.198;2023-01-28T03:52:05;91351.84;;;-1.56;99.59
37206;BME280;23099;42.636;23.198;2023-01-28T03:54:32;91356.00;;;-1.64;99.63
37206;BME280;23099;42.636;23.198;2023-01-28T03:56:58;91363.47;;;-1.49;99.32
37206;BME280;23099;42.636;23.198;2023-01-28T03:59:25;91363.31;;;-1.44;99.34
37206;BME280;23099;42.636;23.198;2023-01-28T04:01:52;91367.34;;;-1.46;98.34
37206;BME280;23099;42.636;23.198;2023-01-28T04:04:20;91354.31;;;-1.60;99.38
37206;BME280;23099;42.636;23.198;2023-01-28T04:06:51;91364.66;;;-1.55;98.59
37206;BME280;23099;42.636;23.198;2023-01-28T04:09:18;91353.56;;;-1.52;98.66
37206;BME280;23099;42.636;23.198;2023-01-28T04:11:46;91366.84;;;-1.48;98.12
37206;BME280;23099;42.636;23.198;2023-01-28T04:14:12;91374.06;;;-1.54;97.75
37206;BME280;23099;42.636;23.198;2023-01-28T04:16:40;91367.78;;;-1.44;97.42
37206;BME280;23099;42.636;23.198;2023-01-28T04:19:07;91374.22;;;-1.59;98.49
37206;BME280;23099;42.636;23.198;2023-01-28T04:21:34;91370.84;;;-1.51;98.30
37206;BME280;23099;42.636;23.198;2023-01-28T04:24:02;91378.72;;;-1.51;98.33
37206;BME280;23099;42.636;23.198;2023-01-28T04:26:28;91375.97;;;-1.46;98.33
37206;BME280;23099;42.636;23.198;2023-01-28T04:28:55;91374.53;;;-1.52;98.40
37206;BME280;23099;42.636;23.198;2023-01-28T04:31:22;91375.72;;;-1.58;97.94
37206;BME280;23099;42.636;23.198;2023-01-28T04:33:49;91375.19;;;-1.46;97.71
37206;BME280;23099;42.636;23.198;2023-01-28T04:36:15;91377.03;;;-1.47;98.53
37206;BME280;23099;42.636;23.198;2023-01-28T04:38:42;91384.91;;;-1.47;97.81
37206;BME280;23099;42.636;23.198;2023-01-28T04:41:10;91380.56;;;-1.51;97.67
37206;BME280;23099;42.636;23.198;2023-01-28T04:43:37;91389.38;;;-1.47;98.25
37206;BME280;23099;42.636;23.198;2023-01-28T04:46:04;91394.06;;;-1.58;97.76
37206;BME280;23099;42.636;23.198;2023-01-28T04:48:30;91393.66;;;-1.51;97.79
37206;BME280;23099;42.636;23.198;2023-01-28T04:50:59;91396.59;;;-1.44;97.69
37206;BME280;23099;42.636;23.198;2023-01-28T04:53:27;91396.16;;;-1.46;98.06
37206;BME280;23099;42.636;23.198;2023-01-28T04:55:54;91402.16;;;-1.46;97.54
37206;BME280;23099;42.636;23.198;2023-01-28T04:58:22;91396.00;;;-1.41;97.70
37206;BME280;23099;42.636;23.198;2023-01-28T05:00:53;91402.50;;;-1.38;96.93
37206;BME280;23099;42.636;23.198;2023-01-28T05:03:20;91404.91;;;-1.51;97.13
37206;BME280;23099;42.636;23.198;2023-01-28T05:05:47;91406.50;;;-1.41;96.75
37206;BME280;23099;42.636;23.198;2023-01-28T05:08:13;91405.47;;;-1.31;97.10
37206;BME280;23099;42.636;23.198;2023-01-28T05:10:40;91412.56;;;-1.32;96.82
37206;BME280;23099;42.636;23.198;2023-01-28T05:13:07;91409.16;;;-1.32;97.08
37206;BME280;23099;42.636;23.198;2023-01-28T05:15:35;91418.72;;;-1.28;96.56
37206;BME280;23099;42.636;23.198;2023-01-28T05:18:02;91423.19;;;-1.28;96.80
37206;BME280;23099;42.636;23.198;2023-01-28T05:20:29;91420.13;;;-1.30;96.45
37206;BME280;23099;42.636;23.198;2023-01-28T05:22:55;91430.75;;;-1.27;97.13
37206;BME280;23099;42.636;23.198;2023-01-28T05:25:22;91432.66;;;-1.19;97.43
37206;BME280;23099;42.636;23.198;2023-01-28T05:27:49;91429.22;;;-1.28;96.32
37206;BME280;23099;42.636;23.198;2023-01-28T05:30:17;91435.41;;;-1.24;96.11
37206;BME280;23099;42.636;23.198;2023-01-28T05:32:45;91434.22;;;-1.18;96.00
37206;BME280;23099;42.636;23.198;2023-01-28T05:35:12;91430.66;;;-1.22;95.94
37206;BME280;23099;42.636;23.198;2023-01-28T05:37:38;91434.22;;;-1.18;96.31
37206;BME280;23099;42.636;23.198;2023-01-28T05:40:06;91433.91;;;-1.16;96.24
37206;BME280;23099;42.636;23.198;2023-01-28T05:42:33;91444.81;;;-1.23;95.93
37206;BME280;23099;42.636;23.198;2023-01-28T05:44:59;91434.16;;;-1.26;96.16
37206;BME280;23099;42.636;23.198;2023-01-28T05:47:26;91451.31;;;-1.20;96.64
37206;BME280;23099;42.636;23.198;2023-01-28T05:49:54;91451.59;;;-1.30;95.83
37206;BME280;23099;42.636;23.198;2023-01-28T05:52:21;91447.28;;;-1.26;96.40
37206;BME280;23099;42.636;23.198;2023-01-28T05:54:47;91455.56;;;-1.33;96.54
37206;BME280;23099;42.636;23.198;2023-01-28T05:57:14;91457.72;;;-1.35;96.80
37206;BME280;23099;42.636;23.198;2023-01-28T05:59:41;91453.09;;;-1.29;96.66
37206;BME280;23099;42.636;23.198;2023-01-28T06:02:07;91456.38;;;-1.24;96.92
37206;BME280;23099;42.636;23.198;2023-01-28T06:04:34;91453.09;;;-1.29;96.42
37206;BME280;23099;42.636;23.198;2023-01-28T06:07:02;91462.59;;;-1.20;96.98
37206;BME280;23099;42.636;23.198;2023-01-28T06:09:28;91455.34;;;-1.14;97.35
37206;BME280;23099;42.636;23.198;2023-01-28T06:11:55;91460.28;;;-1.13;97.03
37206;BME280;23099;42.636;23.198;2023-01-28T06:14:22;91474.22;;;-1.34;95.77
37206;BME280;23099;42.636;23.198;2023-01-28T06:16:49;91474.53;;;-1.36;95.61
37206;BME280;23099;42.636;23.198;2023-01-28T06:19:16;91470.66;;;-1.38;96.23
37206;BME280;23099;42.636;23.198;2023-01-28T06:21:43;91484.22;;;-1.36;96.73
37206;BME280;23099;42.636;23.198;2023-01-28T06:24:11;91483.03;;;-1.30;97.51
37206;BME280;23099;42.636;23.198;2023-01-28T06:26:38;91477.81;;;-1.30;96.79
37206;BME280;23099;42.636;23.198;2023-01-28T06:29:05;91488.44;;;-1.27;97.24
37206;BME280;23099;42.636;23.198;2023-01-28T06:31:32;91485.88;;;-1.18;97.04
37206;BME280;23099;42.636;23.198;2023-01-28T06:33:58;91490.66;;;-1.20;95.89
37206;BME280;23099;42.636;23.198;2023-01-28T06:36:25;91493.91;;;-1.15;95.83
37206;BME280;23099;42.636;23.198;2023-01-28T06:38:52;91497.22;;;-1.00;95.72
37206;BME280;23099;42.636;23.198;2023-01-28T06:41:20;91501.38;;;-0.99;96.25
37206;BME280;23099;42.636;23.198;2023-01-28T06:43:47;91509.69;;;-1.06;96.02
37206;BME280;23099;42.636;23.198;2023-01-28T06:46:13;91515.78;;;-1.19;94.97
37206;BME280;23099;42.636;23.198;2023-01-28T06:48:40;91510.59;;;-1.11;96.26
37206;BME280;23099;42.636;23.198;2023-01-28T06:51:07;91515.78;;;-1.19;95.79
37206;BME280;23099;42.636;23.198;2023-01-28T06:53:33;91518.22;;;-1.23;95.93
37206;BME280;23099;42.636;23.198;2023-01-28T06:56:00;91519.19;;;-1.19;96.01
37206;BME280;23099;42.636;23.198;2023-01-28T06:58:28;91527.97;;;-1.15;96.12
37206;BME280;23099;42.636;23.198;2023-01-28T07:00:55;91527.44;;;-1.03;95.84
37206;BME280;23099;42.636;23.198;2023-01-28T07:03:21;91535.13;;;-1.07;95.13
37206;BME280;23099;42.636;23.198;2023-01-28T07:05:48;91532.53;;;-1.07;95.53
37206;BME280;23099;42.636;23.198;2023-01-28T07:08:15;91524.00;;;-1.12;95.92
37206;BME280;23099;42.636;23.198;2023-01-28T07:10:42;91535.91;;;-1.06;95.78
37206;BME280;23099;42.636;23.198;2023-01-28T07:13:09;91546.25;;;-1.01;95.12
37206;BME280;23099;42.636;23.198;2023-01-28T07:15:37;91549.31;;;-1.08;95.36
37206;BME280;23099;42.636;23.198;2023-01-28T07:18:04;91540.69;;;-1.08;95.19
37206;BME280;23099;42.636;23.198;2023-01-28T07:20:31;91555.59;;;-1.17;96.65
37206;BME280;23099;42.636;23.198;2023-01-28T07:22:57;91556.53;;;-1.13;96.39
37206;BME280;23099;42.636;23.198;2023-01-28T07:25:24;91558.94;;;-1.03;96.07
37206;BME280;23099;42.636;23.198;2023-01-28T07:27:52;91553.25;;;-0.96;95.71
37206;BME280;23099;42.636;23.198;2023-01-28T07:30:20;91558.97;;;-0.94;95.10
37206;BME280;23099;42.636;23.198;2023-01-28T07:32:53;91563.13;;;-0.93;94.89
37206;BME280;23099;42.636;23.198;2023-01-28T07:35:20;91561.69;;;-0.99;95.04
37206;BME280;23099;42.636;23.198;2023-01-28T07:37:50;91565.72;;;-1.02;95.26
37206;BME280;23099;42.636;23.198;2023-01-28T07:40:17;91566.31;;;-1.05;95.83
37206;BME280;23099;42.636;23.198;2023-01-28T07:42:44;91577.28;;;-1.03;96.04
37206;BME280;23099;42.636;23.198;2023-01-28T07:45:11;91581.00;;;-0.95;95.47
37206;BME280;23099;42.636;23.198;2023-01-28T07:47:37;91577.22;;;-0.89;95.64
37206;BME280;23099;42.636;23.198;2023-01-28T07:50:06;91579.97;;;-0.86;94.72
37206;BME280;23099;42.636;23.198;2023-01-28T07:52:33;91575.56;;;-0.77;94.70
37206;BME280;23099;42.636;23.198;2023-01-28T07:55:09;91572.50;;;-0.70;94.85
37206;BME280;23099;42.636;23.198;2023-01-28T07:57:36;91579.97;;;-0.63;94.36
37206;BME280;23099;42.636;23.198;2023-01-28T08:00:03;91584.47;;;-0.55;94.74
37206;BME280;23099;42.636;23.198;2023-01-28T08:02:30;91583.25;;;-0.49;94.16
37206;BME280;23099;42.636;23.198;2023-01-28T08:04:56;91581.44;;;-0.40;94.40
37206;BME280;23099;42.636;23.198;2023-01-28T08:07:28;91589.31;;;-0.40;93.92
37206;BME280;23099;42.636;23.198;2023-01-28T08:09:54;91589.16;;;-0.44;93.63
37206;BME280;23099;42.636;23.198;2023-01-28T08:12:21;91590.56;;;-0.38;92.84
37206;BME280;23099;42.636;23.198;2023-01-28T08:14:48;91595.34;;;-0.40;93.06
37206;BME280;23099;42.636;23.198;2023-01-28T08:17:15;91609.25;;;-0.39;92.46
37206;BME280;23099;42.636;23.198;2023-01-28T08:19:41;91598.16;;;-0.27;92.21
37206;BME280;23099;42.636;23.198;2023-01-28T08:22:08;91600.50;;;-0.26;91.82
37206;BME280;23099;42.636;23.198;2023-01-28T08:24:36;91605.28;;;-0.28;92.58
37206;BME280;23099;42.636;23.198;2023-01-28T08:27:03;91608.25;;;-0.21;92.50
37206;BME280;23099;42.636;23.198;2023-01-28T08:29:29;91610.88;;;-0.12;92.20
37206;BME280;23099;42.636;23.198;2023-01-28T08:31:56;91603.81;;;-0.03;92.51
37206;BME280;23099;42.636;23.198;2023-01-28T08:34:23;91612.31;;;0.03;91.61
37206;BME280;23099;42.636;23.198;2023-01-28T08:36:49;91609.97;;;-0.08;92.69
37206;BME280;23099;42.636;23.198;2023-01-28T08:39:16;91613.41;;;0.02;92.38
37206;BME280;23099;42.636;23.198;2023-01-28T08:41:44;91606.44;;;-0.03;90.04
37206;BME280;23099;42.636;23.198;2023-01-28T08:44:11;91615.72;;;-0.06;89.60
37206;BME280;23099;42.636;23.198;2023-01-28T08:46:37;91610.75;;;-0.07;89.75
37206;BME280;23099;42.636;23.198;2023-01-28T08:49:04;91615.09;;;-0.03;90.78
37206;BME280;23099;42.636;23.198;2023-01-28T08:51:31;91618.66;;;0.02;91.58
37206;BME280;23099;42.636;23.198;2023-01-28T08:53:57;91619.88;;;-0.05;89.71
37206;BME280;23099;42.636;23.198;2023-01-28T08:56:24;91611.06;;;-0.09;89.90
37206;BME280;23099;42.636;23.198;2023-01-28T08:58:52;91613.66;;;-0.17;91.47
37206;BME280;23099;42.636;23.198;2023-01-28T09:01:19;91607.28;;;-0.25;91.24
37206;BME280;23099;42.636;23.198;2023-01-28T09:03:46;91612.28;;;-0.15;91.35
37206;BME280;23099;42.636;23.198;2023-01-28T09:06:12;91623.47;;;-0.01;92.31
37206;BME280;23099;42.636;23.198;2023-01-28T09:08:39;91615.13;;;0.06;92.84
37206;BME280;23099;42.636;23.198;2023-01-28T09:11:06;91610.03;;;0.10;91.50
37206;BME280;23099;42.636;23.198;2023-01-28T09:13:32;91614.81;;;0.08;91.53
37206;BME280;23099;42.636;23.198;2023-01-28T09:16:03;91612.50;;;0.15;91.66
37206;BME280;23099;42.636;23.198;2023-01-28T09:18:30;91616.13;;;0.36;91.29
37206;BME280;23099;42.636;23.198;2023-01-28T09:20:57;91616.59;;;0.47;90.45
37206;BME280;23099;42.636;23.198;2023-01-28T09:23:23;91622.97;;;0.54;89.36
37206;BME280;23099;42.636;23.198;2023-01-28T09:25:50;91621.09;;;0.55;89.45
37206;BME280;23099;42.636;23.198;2023-01-28T09:28:17;91617.69;;;0.46;88.84
37206;BME280;23099;42.636;23.198;2023-01-28T09:30:43;91623.88;;;0.41;89.97
37206;BME280;23099;42.636;23.198;2023-01-28T09:33:11;91616.91;;;0.45;89.87
37206;BME280;23099;42.636;23.198;2023-01-28T09:35:38;91621.06;;;0.46;89.66
37206;BME280;23099;42.636;23.198;2023-01-28T09:38:04;91621.38;;;0.27;89.30
37206;BME280;23099;42.636;23.198;2023-01-28T09:40:35;91618.56;;;0.24;89.75
37206;BME280;23099;42.636;23.198;2023-01-28T09:43:24;91621.81;;;0.21;90.49
37206;BME280;23099;42.636;23.198;2023-01-28T09:45:57;91613.16;;;0.29;90.82
37206;BME280;23099;42.636;23.198;2023-01-28T09:48:28;91620.75;;;0.30;90.27
37206;BME280;23099;42.636;23.198;2023-01-28T09:50:57;91620.59;;;0.27;89.75
37206;BME280;23099;42.636;23.198;2023-01-28T09:53:29;91618.59;;;0.32;90.23
37206;BME280;23099;42.636;23.198;2023-01-28T09:56:00;91618.59;;;0.32;89.84
37206;BME280;23099;42.636;23.198;2023-01-28T09:58:28;91623.22;;;0.44;89.65
37206;BME280;23099;42.636;23.198;2023-01-28T10:00:59;91618.75;;;0.45;89.16
37206;BME280;23099;42.636;23.198;2023-01-28T10:03:51;91616.47;;;0.52;89.51
37206;BME280;23099;42.636;23.198;2023-01-28T10:06:27;91615.22;;;0.58;90.02
37206;BME280;23099;42.636;23.198;2023-01-28T10:09:12;91610.91;;;0.70;89.17
37206;BME280;23099;42.636;23.198;2023-01-28T10:11:57;91604.25;;;0.90;89.91
37206;BME280;23099;42.636;23.198;2023-01-28T10:14:38;91606.88;;;1.08;88.53
37206;BME280;23099;42.636;23.198;2023-01-28T10:17:09;91604.09;;;1.13;87.57
37206;BME280;23099;42.636;23.198;2023-01-28T10:19:42;91607.00;;;1.20;88.30
37206;BME280;23099;42.636;23.198;2023-01-28T10:22:13;91601.59;;;1.25;87.64
37206;BME280;23099;42.636;23.198;2023-01-28T10:24:46;91611.03;;;1.09;85.71
37206;BME280;23099;42.636;23.198;2023-01-28T10:27:16;91608.44;;;1.00;86.96
37206;BME280;23099;42.636;23.198;2023-01-28T10:29:46;91615.53;;;0.91;88.06
37206;BME280;23099;42.636;23.198;2023-01-28T10:32:20;91617.22;;;0.87;88.95
37206;BME280;23099;42.636;23.198;2023-01-28T10:34:50;91611.22;;;0.78;88.31
37206;BME280;23099;42.636;23.198;2023-01-28T10:37:17;91609.38;;;0.69;87.66
37206;BME280;23099;42.636;23.198;2023-01-28T10:39:45;91609.50;;;0.56;89.83
37206;BME280;23099;42.636;23.198;2023-01-28T10:42:19;91609.94;;;0.49;88.57
37206;BME280;23099;42.636;23.198;2023-01-28T10:44:52;91606.09;;;0.55;89.12
37206;BME280;23099;42.636;23.198;2023-01-28T10:47:28;91615.22;;;0.58;89.78
37206;BME280;23099;42.636;23.198;2023-01-28T10:49:58;91607.00;;;0.59;89.33
37206;BME280;23099;42.636;23.198;2023-01-28T10:52:26;91601.63;;;0.64;90.55
37206;BME280;23099;42.636;23.198;2023-01-28T10:55:00;91609.84;;;0.72;89.63
37206;BME280;23099;42.636;23.198;2023-01-28T10:57:27;91604.41;;;0.68;90.53
37206;BME280;23099;42.636;23.198;2023-01-28T10:59:55;91607.03;;;0.77;90.23
37206;BME280;23099;42.636;23.198;2023-01-28T11:02:28;91612.91;;;0.82;88.59
37206;BME280;23099;42.636;23.198;2023-01-28T11:05:13;91617.09;;;0.83;88.83
37206;BME280;23099;42.636;23.198;2023-01-28T11:07:40;91613.84;;;0.95;89.29
37206;BME280;23099;42.636;23.198;2023-01-28T11:10:24;91611.06;;;0.83;88.91
37206;BME280;23099;42.636;23.198;2023-01-28T11:12:55;91615.38;;;0.87;89.36
37206;BME280;23099;42.636;23.198;2023-01-28T11:15:22;91604.72;;;0.92;89.00
37206;BME280;23099;42.636;23.198;2023-01-28T11:17:55;91605.78;;;0.91;88.68
37206;BME280;23099;42.636;23.198;2023-01-28T11:20:25;91614.78;;;0.99;88.29
37206;BME280;23099;42.636;23.198;2023-01-28T11:22:53;91609.53;;;0.99;87.59
37206;BME280;23099;42.636;23.198;2023-01-28T11:25:27;91603.78;;;0.97;88.53
37206;BME280;23099;42.636;23.198;2023-01-28T11:27:55;91604.25;;;1.08;89.49
37206;BME280;23099;42.636;23.198;2023-01-28T11:30:23;91607.63;;;1.17;88.75
37206;BME280;23099;42.636;23.198;2023-01-28T11:32:55;91610.56;;;1.24;87.61
37206;BME280;23099;42.636;23.198;2023-01-28T11:35:27;91601.91;;;1.15;87.34
37206;BME280;23099;42.636;23.198;2023-01-28T11:37:56;91601.91;;;1.15;87.80
37206;BME280;23099;42.636;23.198;2023-01-28T11:40:23;91604.38;;;1.20;88.15
37206;BME280;23099;42.636;23.198;2023-01-28T11:42:50;91593.09;;;0.93;88.25
37206;BME280;23099;42.636;23.198;2023-01-28T11:45:19;91599.13;;;0.94;88.70
37206;BME280;23099;42.636;23.198;2023-01-28T11:48:05;91601.91;;;0.89;87.90
37206;BME280;23099;42.636;23.198;2023-01-28T11:50:44;91595.13;;;0.96;88.39
37206;BME280;23099;42.636;23.198;2023-01-28T11:53:28;91600.19;;;1.01;87.78
37206;BME280;23099;42.636;23.198;2023-01-28T11:56:18;91592.47;;;1.14;88.89
37206;BME280;23099;42.636;23.198;2023-01-28T11:58:54;91602.22;;;1.13;86.83
37206;BME280;23099;42.636;23.198;2023-01-28T12:01:29;91596.03;;;0.92;87.47
37206;BME280;23099;42.636;23.198;2023-01-28T12:04:16;91599.31;;;0.97;87.12
37206;BME280;23099;42.636;23.198;2023-01-28T12:07:12;91596.19;;;1.04;87.73
37206;BME280;23099;42.636;23.198;2023-01-28T12:09:52;91600.22;;;1.10;87.45
37206;BME280;23099;42.636;23.198;2023-01-28T12:12:36;91592.97;;;0.98;87.39
37206;BME280;23099;42.636;23.198;2023-01-28T12:15:38;91598.19;;;1.07;87.12
37206;BME280;23099;42.636;23.198;2023-01-28T12:18:31;91596.66;;;0.97;87.00
37206;BME280;23099;42.636;23.198;2023-01-28T12:21:03;91604.09;;;0.78;87.72
37206;BME280;23099;42.636;23.198;2023-01-28T12:23:43;91601.91;;;0.89;88.56
37206;BME280;23099;42.636;23.198;2023-01-28T12:26:17;91600.06;;;0.89;87.02
37206;BME280;23099;42.636;23.198;2023-01-28T12:29:00;91605.47;;;0.93;86.53
37206;BME280;23099;42.636;23.198;2023-01-28T12:31:46;91600.38;;;0.96;85.82
37206;BME280;23099;42.636;23.198;2023-01-28T12:34:37;91604.41;;;0.77;86.10
37206;BME280;23099;42.636;23.198;2023-01-28T12:37:10;91606.41;;;0.62;87.53
37206;BME280;23099;42.636;23.198;2023-01-28T12:39:52;91607.19;;;0.54;87.75
37206;BME280;23099;42.636;23.198;2023-01-28T12:42:29;91613.34;;;0.58;88.24
37206;BME280;23099;42.636;23.198;2023-01-28T12:45:02;91617.22;;;0.61;88.89
37206;BME280;23099;42.636;23.198;2023-01-28T12:47:34;91621.75;;;0.69;88.53
37206;BME280;23099;42.636;23.198;2023-01-28T12:50:04;91626.38;;;0.63;87.32
37206;BME280;23099;42.636;23.198;2023-01-28T12:52:39;91607.78;;;0.51;87.20
37206;BME280;23099;42.636;23.198;2023-01-28T12:55:14;91611.03;;;0.48;87.67
37206;BME280;23099;42.636;23.198;2023-01-28T12:57:43;91600.66;;;0.34;87.07
37206;BME280;23099;42.636;23.198;2023-01-28T13:00:20;91629.59;;;0.60;87.33
37206;BME280;23099;42.636;23.198;2023-01-28T13:02:54;91632.25;;;0.69;88.78
37206;BME280;23099;42.636;23.198;2023-01-28T13:05:27;91635.34;;;0.71;88.72
37206;BME280;23099;42.636;23.198;2023-01-28T13:08:02;91642.31;;;0.67;86.58
37206;BME280;23099;42.636;23.198;2023-01-28T13:10:37;91632.09;;;0.74;87.01